createdAt,value
2022-11-18T00:00:32.262Z,91037.31
2022-11-18T00:03:05.164Z,91037.31
2022-11-18T00:05:37.546Z,91034.03
2022-11-18T00:08:10.667Z,91025.59
2022-11-18T00:10:42.990Z,91026.03
2022-11-18T00:13:33.506Z,91013.75
2022-11-18T00:16:08.024Z,91027.22
2022-11-18T00:18:40.428Z,91023.22
2022-11-18T00:21:12.782Z,91023.66
2022-11-18T00:23:48.683Z,91017.38
2022-11-18T00:26:21.030Z,91013.25
2022-11-18T00:28:53.405Z,91017.78
2022-11-18T00:31:25.781Z,91021.94
2022-11-18T00:33:58.215Z,91018.06
2022-11-18T00:36:30.881Z,91020.50
2022-11-18T00:39:03.986Z,91018.66
2022-11-18T00:41:54.361Z,91011.03
2022-11-18T00:44:26.785Z,91015.22
2022-11-18T00:46:59.176Z,91013.84
2022-11-18T00:49:31.537Z,91016.00
2022-11-18T00:52:04.857Z,91017.06
2022-11-18T00:54:37.887Z,91023.06
2022-11-18T00:57:10.269Z,91018.44
2022-11-18T00:59:42.669Z,91017.69
2022-11-18T01:02:15.131Z,91013.88
2022-11-18T01:04:47.526Z,91016.81
2022-11-18T01:07:19.951Z,91022.22
2022-11-18T01:09:53.007Z,91004.63
2022-11-18T01:12:43.159Z,91007.97
2022-11-18T01:15:15.533Z,91007.97
2022-11-18T01:17:47.951Z,91012.44
2022-11-18T01:20:20.325Z,91016.44
2022-11-18T01:22:52.710Z,91011.53
2022-11-18T01:25:25.928Z,91014.78
2022-11-18T01:27:58.255Z,91012.94
2022-11-18T01:30:33.750Z,91016.50
2022-11-18T01:33:06.482Z,91015.31
2022-11-18T01:35:40.875Z,91019.75
2022-11-18T01:38:14.362Z,91013.00
2022-11-18T01:40:47.369Z,91011.06
2022-11-18T01:43:21.760Z,91000.94
2022-11-18T01:45:54.202Z,91011.69
2022-11-18T01:48:31.509Z,91007.56
2022-11-18T01:51:07.709Z,91012.50
2022-11-18T01:53:42.712Z,91011.31
2022-11-18T01:56:18.762Z,91007.50
2022-11-18T01:58:55.499Z,91006.28
2022-11-18T02:01:27.970Z,91016.88
2022-11-18T02:04:00.613Z,91016.00
2022-11-18T02:06:33.432Z,91008.19
2022-11-18T02:09:05.978Z,91012.47
2022-11-18T02:11:51.046Z,91007.47
2022-11-18T02:14:26.467Z,91013.00
2022-11-18T02:17:11.558Z,90993.34
2022-11-18T02:20:18.576Z,91004.81
2022-11-18T02:23:16.881Z,91012.47
2022-11-18T02:26:07.384Z,91013.41
2022-11-18T02:28:59.153Z,91018.78
2022-11-18T02:31:35.205Z,91013.16
2022-11-18T02:34:17.632Z,91000.75
2022-11-18T02:36:55.026Z,91010.72
2022-11-18T02:39:33.525Z,91011.69
2022-11-18T02:42:10.457Z,91011.22
2022-11-18T02:44:50.802Z,91003.56
2022-11-18T02:47:25.493Z,91006.69
2022-11-18T02:50:03.168Z,91008.22
2022-11-18T02:52:37.822Z,91007.28
2022-11-18T02:55:13.429Z,91016.63
2022-11-18T02:57:47.577Z,91015.59
2022-11-18T03:00:20.657Z,91027.28
2022-11-18T03:02:53.053Z,91027.75
2022-11-18T03:05:31.605Z,91025.91
2022-11-18T03:08:09.608Z,91018.72
2022-11-18T03:10:52.068Z,91014.91
2022-11-18T03:13:32.286Z,91023.78
2022-11-18T03:16:12.460Z,91018.47
2022-11-18T03:18:50.406Z,91021.81
2022-11-18T03:21:34.717Z,91018.63
2022-11-18T03:24:14.734Z,91006.56
2022-11-18T03:26:53.955Z,91012.97
2022-11-18T03:29:32.579Z,91018.00
2022-11-18T03:32:09.738Z,91011.44
2022-11-18T03:34:44.920Z,91019.09
2022-11-18T03:37:19.867Z,91012.25
2022-11-18T03:39:56.596Z,91005.38
2022-11-18T03:42:34.827Z,91012.84
2022-11-18T03:45:12.288Z,90997.41
2022-11-18T03:47:50.041Z,91001.53
2022-11-18T03:50:27.959Z,90989.28
2022-11-18T03:53:02.614Z,90992.78
2022-11-18T03:55:39.556Z,90988.69
2022-11-18T03:58:18.209Z,90989.28
2022-11-18T04:00:54.165Z,90981.97
2022-11-18T04:03:27.388Z,90990.06
2022-11-18T04:06:09.205Z,90983.03
2022-11-18T04:08:45.238Z,90981.84
2022-11-18T04:11:38.717Z,90989.94
2022-11-18T04:14:13.664Z,90983.81
2022-11-18T04:16:50.717Z,90986.84
2022-11-18T04:19:23.987Z,90989.94
2022-11-18T04:21:56.575Z,90987.19
2022-11-18T04:24:28.960Z,90988.84
2022-11-18T04:27:02.102Z,90990.22
2022-11-18T04:29:34.683Z,90986.84
2022-11-18T04:32:07.256Z,90985.34
2022-11-18T04:34:40.243Z,91002.44
2022-11-18T04:37:12.612Z,90997.09
2022-11-18T04:39:44.950Z,91004.59
2022-11-18T04:42:17.356Z,91002.78
2022-11-18T04:44:49.713Z,91006.44
2022-11-18T04:47:22.203Z,91002.31
2022-11-18T04:49:55.243Z,91004.16
2022-11-18T04:52:27.671Z,91011.66
2022-11-18T04:55:00.046Z,91010.88
2022-11-18T04:57:32.449Z,91015.63
2022-11-18T05:00:06.269Z,91015.13
2022-11-18T05:02:38.689Z,91011.16
2022-11-18T05:05:11.750Z,91013.16
2022-11-18T05:07:44.178Z,91009.50
2022-11-18T05:10:17.026Z,91009.50
2022-11-18T05:12:49.112Z,91009.19
2022-11-18T05:15:23.264Z,91008.13
2022-11-18T05:17:55.647Z,91018.03
2022-11-18T05:20:28.677Z,91007.34
2022-11-18T05:23:01.109Z,91011.81
2022-11-18T05:25:35.205Z,91011.81
2022-11-18T05:28:07.640Z,91016.66
2022-11-18T05:30:40.310Z,91012.09
2022-11-18T05:33:12.670Z,91017.31
2022-11-18T05:35:45.713Z,91018.97
2022-11-18T05:38:18.149Z,91014.84
2022-11-18T05:40:50.503Z,91010.88
2022-11-18T05:43:22.611Z,91015.00
2022-11-18T05:45:54.989Z,91015.63
2022-11-18T05:48:27.654Z,91016.53
2022-11-18T05:51:00.715Z,91006.47
2022-11-18T05:53:33.148Z,91010.28
2022-11-18T05:56:15.615Z,91006.16
2022-11-18T05:58:48.087Z,91009.97
2022-11-18T06:01:24.485Z,91004.31
2022-11-18T06:03:58.104Z,91013.94
2022-11-18T06:06:31.733Z,91002.00
2022-11-18T06:09:05.776Z,91012.25
2022-11-18T06:11:41.494Z,91004.16
2022-11-18T06:14:16.773Z,91007.34
2022-11-18T06:16:54.480Z,91001.06
2022-11-18T06:19:27.068Z,91001.56
2022-11-18T06:22:01.462Z,90996.81
2022-11-18T06:24:34.346Z,90998.66
2022-11-18T06:27:06.786Z,91000.78
2022-11-18T06:29:39.377Z,90994.38
2022-11-18T06:32:11.792Z,91000.34
2022-11-18T06:34:44.274Z,90992.53
2022-11-18T06:37:19.924Z,90991.31
2022-11-18T06:39:52.384Z,90995.31
2022-11-18T06:42:45.771Z,90987.66
2022-11-18T06:45:18.248Z,90982.16
2022-11-18T06:47:50.667Z,90981.69
2022-11-18T06:50:23.092Z,90991.31
2022-11-18T06:52:56.419Z,90986.56
2022-11-18T06:55:29.164Z,90992.50
2022-11-18T06:58:01.512Z,90996.03
2022-11-18T07:00:33.968Z,90996.91
2022-11-18T07:03:06.420Z,91006.97
2022-11-18T07:05:38.873Z,90993.00
2022-11-18T07:08:11.949Z,90996.94
2022-11-18T07:10:52.103Z,90993.38
2022-11-18T07:13:24.524Z,90997.13
2022-11-18T07:16:03.085Z,90995.38
2022-11-18T07:18:37.806Z,90982.59
2022-11-18T07:21:14.752Z,90974.88
2022-11-18T07:23:48.198Z,90971.69
2022-11-18T07:26:21.221Z,90961.81
2022-11-18T07:28:54.077Z,90972.72
2022-11-18T07:31:26.595Z,90951.03
2022-11-18T07:33:58.979Z,90958.69
2022-11-18T07:36:35.638Z,90946.78
2022-11-18T07:39:09.520Z,90942.16
2022-11-18T07:41:41.940Z,90942.47
2022-11-18T07:44:14.436Z,90934.13
2022-11-18T07:46:46.806Z,90956.53
2022-11-18T07:49:19.591Z,90957.84
2022-11-18T07:51:53.041Z,90964.69
2022-11-18T07:54:26.063Z,90965.75
2022-11-18T07:56:58.454Z,90974.75
2022-11-18T07:59:30.802Z,90978.50
2022-11-18T08:02:03.309Z,90992.13
2022-11-18T08:04:37.234Z,91002.44
2022-11-18T08:07:09.926Z,90998.13
2022-11-18T08:09:43.029Z,90996.25
2022-11-18T08:12:15.408Z,90995.25
2022-11-18T08:14:49.310Z,90984.53
2022-11-18T08:17:22.171Z,90975.09
2022-11-18T08:19:54.624Z,90972.16
2022-11-18T08:22:27.001Z,90973.25
2022-11-18T08:25:00.120Z,90972.84
2022-11-18T08:27:32.830Z,90961.97
2022-11-18T08:30:06.236Z,90953.78
2022-11-18T08:32:38.729Z,90949.44
2022-11-18T08:35:11.572Z,90952.81
2022-11-18T08:37:44.068Z,90946.03
2022-11-18T08:40:17.274Z,90941.78
2022-11-18T08:42:49.725Z,90943.16
2022-11-18T08:45:22.231Z,90941.84
2022-11-18T08:47:54.650Z,90933.19
2022-11-18T08:50:27.016Z,90913.72
2022-11-18T08:52:59.419Z,90910.22
2022-11-18T08:55:32.472Z,90900.97
2022-11-18T08:58:04.858Z,90906.81
2022-11-18T09:00:38.182Z,90909.59
2022-11-18T09:03:10.593Z,90907.53
2022-11-18T09:05:43.012Z,90902.16
2022-11-18T09:08:15.543Z,90902.69
2022-11-18T09:10:48.614Z,90900.63
2022-11-18T09:16:13.918Z,90899.44
2022-11-18T09:18:46.298Z,90900.34
2022-11-18T09:21:18.948Z,90898.31
2022-11-18T09:23:51.489Z,90895.94
2022-11-18T09:26:24.520Z,90893.22
2022-11-18T09:28:57.223Z,90904.75
2022-11-18T09:31:30.042Z,90885.94
2022-11-18T09:34:02.540Z,90901.00
2022-11-18T09:36:34.952Z,90880.34
2022-11-18T09:39:07.338Z,90870.06
2022-11-18T09:41:48.068Z,90854.78
2022-11-18T09:44:44.509Z,90852.81
2022-11-18T09:47:25.863Z,90842.41
2022-11-18T09:50:03.791Z,90843.50
2022-11-18T09:52:50.607Z,90836.38
2022-11-18T09:55:23.399Z,90843.81
2022-11-18T09:57:58.627Z,90826.72
2022-11-18T10:00:31.207Z,90836.16
2022-11-18T10:03:05.925Z,90838.44
2022-11-18T10:05:45.093Z,90842.34
2022-11-18T10:08:25.352Z,90848.66
2022-11-18T10:11:01.500Z,90845.22
2022-11-18T10:13:48.537Z,90837.44
2022-11-18T10:16:30.049Z,90835.69
2022-11-18T10:19:11.625Z,90831.94
2022-11-18T10:21:56.018Z,90821.31
2022-11-18T10:24:33.336Z,90825.44
2022-11-18T10:27:10.524Z,90835.41
2022-11-18T10:29:44.966Z,90821.84
2022-11-18T10:32:17.930Z,90826.13
2022-11-18T10:34:52.967Z,90824.97
2022-11-18T10:37:52.489Z,90834.59
2022-11-18T10:40:25.182Z,90821.88
2022-11-18T10:42:57.619Z,90827.84
2022-11-18T10:45:32.407Z,90809.00
2022-11-18T10:48:16.458Z,90810.25
2022-11-18T10:50:55.246Z,90801.44
2022-11-18T10:53:30.979Z,90789.63
2022-11-18T10:56:04.728Z,90791.38
2022-11-18T10:58:41.441Z,90790.78
2022-11-18T11:01:21.210Z,90787.50
2022-11-18T11:03:59.256Z,90791.50
2022-11-18T11:06:34.397Z,90793.91
2022-11-18T11:09:09.755Z,90793.25
2022-11-18T11:11:54.709Z,90798.91
2022-11-18T11:14:31.647Z,90790.19
2022-11-18T11:17:09.306Z,90796.38
2022-11-18T11:19:48.870Z,90791.72
2022-11-18T11:22:21.343Z,90791.28
2022-11-18T11:24:53.850Z,90777.34
2022-11-18T11:30:38.741Z,90770.81
2022-11-18T11:33:30.710Z,90760.63
2022-11-18T11:36:41.401Z,90774.34
2022-11-18T11:39:46.600Z,90770.56
2022-11-18T11:42:35.025Z,90772.75
2022-11-18T11:45:19.247Z,90774.63
2022-11-18T11:48:12.534Z,90759.94
2022-11-18T11:51:04.063Z,90754.25
2022-11-18T11:53:59.500Z,90759.88
2022-11-18T11:56:35.342Z,90763.31
2022-11-18T11:59:27.642Z,90772.47
2022-11-18T12:02:40.045Z,90772.00
2022-11-18T12:05:21.879Z,90771.53
2022-11-18T12:07:57.311Z,90766.06
2022-11-18T12:10:40.109Z,90765.63
2022-11-18T12:13:35.330Z,90773.09
2022-11-18T12:16:27.865Z,90766.69
2022-11-18T12:19:06.728Z,90754.16
2022-11-18T12:21:55.475Z,90740.38
2022-11-18T12:24:31.582Z,90739.59
2022-11-18T12:27:10.718Z,90737.41
2022-11-18T12:29:54.192Z,90730.66
2022-11-18T12:32:29.788Z,90736.50
2022-11-18T12:35:05.698Z,90733.88
2022-11-18T12:37:44.673Z,90725.31
2022-11-18T12:40:36.672Z,90728.38
2022-11-18T12:43:58.385Z,90717.75
2022-11-18T12:46:54.810Z,90722.25
2022-11-18T12:50:03.531Z,90706.56
2022-11-18T12:52:47.734Z,90720.16
2022-11-18T12:55:30.511Z,90701.22
2022-11-18T12:58:03.554Z,90691.56
2022-11-18T13:00:51.492Z,90697.88
2022-11-18T13:03:28.321Z,90688.56
2022-11-18T13:06:05.707Z,90684.47
2022-11-18T13:08:39.735Z,90672.09
2022-11-18T13:11:34.761Z,90664.84
2022-11-18T13:14:33.431Z,90682.44
2022-11-18T13:17:47.905Z,90676.06
2022-11-18T13:20:28.637Z,90683.91
2022-11-18T13:23:20.844Z,90676.06
2022-11-18T13:25:53.906Z,90676.13
2022-11-18T13:28:32.785Z,90675.69
2022-11-18T13:31:14.621Z,90666.13
2022-11-18T13:33:47.254Z,90660.38
2022-11-18T13:36:22.470Z,90643.84
2022-11-18T13:38:56.117Z,90642.78
2022-11-18T13:41:32.308Z,90637.81
2022-11-18T13:44:15.528Z,90639.72
2022-11-18T13:46:53.686Z,90639.66
2022-11-18T13:49:50.081Z,90648.59
2022-11-18T13:52:27.552Z,90643.25
2022-11-18T13:55:03.086Z,90620.31
2022-11-18T13:57:36.357Z,90619.91
2022-11-18T14:00:21.197Z,90609.06
2022-11-18T14:02:57.450Z,90603.00
2022-11-18T14:05:29.833Z,90600.59
2022-11-18T14:08:05.829Z,90592.97
2022-11-18T14:10:43.602Z,90612.38
2022-11-18T14:13:22.902Z,90592.59
2022-11-18T14:15:57.272Z,90615.47
2022-11-18T14:18:33.703Z,90594.03
2022-11-18T14:21:06.264Z,90595.22
2022-11-18T14:23:43.283Z,90590.69
2022-11-18T14:26:27.239Z,90601.56
2022-11-18T14:29:01.327Z,90609.13
2022-11-18T14:31:33.751Z,90615.13
2022-11-18T14:34:23.959Z,90626.34
2022-11-18T14:36:56.497Z,90637.59
2022-11-18T14:39:30.420Z,90630.19
2022-11-18T14:42:04.956Z,90621.66
2022-11-18T14:44:37.310Z,90636.91
2022-11-18T14:47:19.020Z,90640.22
2022-11-18T14:49:52.182Z,90636.03
2022-11-18T14:52:24.554Z,90628.44
2022-11-18T14:54:56.886Z,90642.00
2022-11-18T14:57:29.286Z,90642.91
2022-11-18T15:00:01.883Z,90643.00
2022-11-18T15:02:34.325Z,90662.88
2022-11-18T15:05:08.507Z,90670.84
2022-11-18T15:07:40.918Z,90655.50
2022-11-18T15:10:15.502Z,90652.94
2022-11-18T15:12:47.938Z,90639.44
2022-11-18T15:15:20.305Z,90650.59
2022-11-18T15:17:54.057Z,90658.53
2022-11-18T15:20:27.416Z,90649.41
2022-11-18T15:22:59.796Z,90635.00
2022-11-18T15:25:32.179Z,90637.16
2022-11-18T15:28:04.647Z,90631.50
2022-11-18T15:30:37.011Z,90636.16
2022-11-18T15:33:09.376Z,90623.34
2022-11-18T15:35:42.515Z,90587.47
2022-11-18T15:38:14.919Z,90602.06
2022-11-18T15:40:47.432Z,90588.91
2022-11-18T15:43:19.839Z,90587.31
2022-11-18T15:45:56.703Z,90577.84
2022-11-18T15:48:29.134Z,90593.25
2022-11-18T15:51:03.636Z,90599.72
2022-11-18T15:53:37.898Z,90583.44
2022-11-18T15:56:24.485Z,90589.84
2022-11-18T15:58:58.820Z,90581.78
2022-11-18T16:01:33.063Z,90571.72
2022-11-18T16:04:07.511Z,90578.13
2022-11-18T16:06:42.728Z,90581.13
2022-11-18T16:09:16.653Z,90585.41
2022-11-18T16:12:07.127Z,90595.53
2022-11-18T16:14:39.481Z,90598.00
2022-11-18T16:17:11.841Z,90606.41
2022-11-18T16:19:44.184Z,90615.22
2022-11-18T16:22:17.173Z,90613.59
2022-11-18T16:24:49.560Z,90639.94
2022-11-18T16:27:21.906Z,90641.00
2022-11-18T16:29:54.338Z,90638.28
2022-11-18T16:32:26.397Z,90635.53
2022-11-18T16:35:01.371Z,90628.16
2022-11-18T16:37:34.913Z,90643.09
2022-11-18T16:40:08.941Z,90651.28
2022-11-18T16:42:41.468Z,90640.00
2022-11-18T16:45:13.976Z,90625.78
2022-11-18T16:47:46.361Z,90625.50
2022-11-18T16:50:18.966Z,90627.53
2022-11-18T16:52:51.956Z,90626.59
2022-11-18T16:55:24.302Z,90603.72
2022-11-18T16:57:56.702Z,90616.13
2022-11-18T17:00:58.307Z,90616.13
2022-11-18T17:03:22.646Z,90611.25
2022-11-18T17:05:59.627Z,90601.28
2022-11-18T17:08:34.257Z,90596.66
2022-11-18T17:11:08.517Z,90598.50
2022-11-18T17:13:41.434Z,90574.06
2022-11-18T17:16:15.995Z,90584.34
2022-11-18T17:18:53.765Z,90602.28
2022-11-18T17:21:27.863Z,90614.63
2022-11-18T17:24:00.882Z,90602.94
2022-11-18T17:26:33.797Z,90608.69
2022-11-18T17:29:06.113Z,90600.41
2022-11-18T17:31:39.183Z,90595.22
2022-11-18T17:34:13.146Z,90583.56
2022-11-18T17:36:45.563Z,90589.41
2022-11-18T17:39:20.015Z,90590.97
2022-11-18T17:42:10.438Z,90585.88
2022-11-18T17:44:43.010Z,90559.19
2022-11-18T17:47:15.403Z,90568.16
2022-11-18T17:49:47.754Z,90572.34
2022-11-18T17:52:20.159Z,90571.78
2022-11-18T17:54:53.157Z,90581.16
2022-11-18T17:57:25.547Z,90581.22
2022-11-18T17:59:57.953Z,90576.47
2022-11-18T18:02:30.357Z,90577.97
2022-11-18T18:05:02.795Z,90574.19
2022-11-18T18:07:35.204Z,90586.59
2022-11-18T18:10:09.187Z,90585.75
2022-11-18T18:27:22.785Z,90598.41
2022-11-18T18:29:55.356Z,90607.00
2022-11-18T18:32:28.793Z,90623.66
2022-11-18T18:35:01.198Z,90624.66
2022-11-18T18:37:35.076Z,90613.47
2022-11-18T18:40:08.502Z,90596.44
2022-11-18T18:42:41.542Z,90604.97
2022-11-18T18:45:32.359Z,90638.28
2022-11-18T18:48:05.163Z,90627.28
2022-11-18T18:50:37.584Z,90609.44
2022-11-18T18:53:09.893Z,90610.47
2022-11-18T18:55:45.032Z,90637.41
2022-11-18T18:58:18.347Z,90618.47
2022-11-18T19:00:54.233Z,90618.47
2022-11-18T19:03:30.374Z,90618.03
2022-11-18T19:06:48.804Z,90609.59
2022-11-18T19:09:08.795Z,90592.16
2022-11-18T19:11:59.806Z,90593.47
2022-11-18T19:14:34.529Z,90600.22
2022-11-18T19:17:11.321Z,90596.91
2022-11-18T19:20:02.463Z,90605.94
2022-11-18T19:22:35.036Z,90613.78
2022-11-18T19:25:08.078Z,90619.38
2022-11-18T19:27:40.582Z,90614.34
2022-11-18T19:30:13.851Z,90639.91
2022-11-18T19:32:46.287Z,90649.03
2022-11-18T19:35:18.916Z,90648.03
2022-11-18T19:37:51.278Z,90658.97
2022-11-18T19:40:23.724Z,90664.81
2022-11-18T19:42:56.123Z,90675.00
2022-11-18T19:45:29.253Z,90659.66
2022-11-18T19:48:02.180Z,90685.75
2022-11-18T19:50:34.529Z,90685.06
2022-11-18T19:53:26.918Z,90703.06
2022-11-18T19:56:00.794Z,90680.31
2022-11-18T19:58:34.997Z,90708.03
2022-11-18T20:01:13.875Z,90709.34
2022-11-18T20:03:47.636Z,90719.38
2022-11-18T20:06:21.535Z,90730.03
2022-11-18T20:08:55.107Z,90727.53
2022-11-18T20:11:28.134Z,90738.41
2022-11-18T20:14:00.874Z,90747.63
2022-11-18T20:16:36.332Z,90748.81
2022-11-18T20:19:12.688Z,90763.63
2022-11-18T20:21:47.154Z,90766.28
2022-11-18T20:24:19.516Z,90775.66
2022-11-18T20:26:51.897Z,90768.22
2022-11-18T20:29:24.317Z,90784.94
2022-11-18T20:31:57.330Z,90794.25
2022-11-18T20:34:29.685Z,90789.00
2022-11-18T20:37:02.072Z,90791.22
2022-11-18T20:39:34.457Z,90787.94
2022-11-18T20:42:25.006Z,90787.47
2022-11-18T20:44:57.357Z,90774.41
2022-11-18T20:47:30.498Z,90791.03
2022-11-18T20:50:03.036Z,90787.22
2022-11-18T20:52:35.469Z,90777.66
2022-11-18T20:55:09.720Z,90781.06
2022-11-18T20:57:42.119Z,90785.19
2022-11-18T21:00:15.309Z,90785.25
2022-11-18T21:02:48.526Z,90799.81
2022-11-18T21:05:20.881Z,90799.66
2022-11-18T21:07:53.241Z,90806.06
2022-11-18T21:10:25.621Z,90812.72
2022-11-18T21:13:16.150Z,90813.03
2022-11-18T21:15:48.521Z,90815.84
2022-11-18T21:18:21.579Z,90810.88
2022-11-18T21:21:11.266Z,90815.19
2022-11-18T21:23:43.369Z,90817.56
2022-11-18T21:26:15.648Z,90809.25
2022-11-18T21:28:48.561Z,90818.31
2022-11-18T21:31:23.343Z,90816.03
2022-11-18T21:33:56.947Z,90817.09
2022-11-18T21:36:29.745Z,90829.06
2022-11-18T21:39:04.195Z,90827.31
2022-11-18T21:41:36.971Z,90839.53
2022-11-18T21:44:10.879Z,90833.19
2022-11-18T21:46:43.277Z,90841.66
2022-11-18T21:49:16.721Z,90834.22
2022-11-18T21:51:49.619Z,90850.41
2022-11-18T21:54:21.967Z,90836.50
2022-11-18T21:56:54.374Z,90845.44
2022-11-18T21:59:26.755Z,90846.53
2022-11-18T22:01:59.131Z,90851.41
2022-11-18T22:04:50.242Z,90848.06
2022-11-18T22:07:23.686Z,90864.41
2022-11-18T22:09:56.028Z,90863.59
2022-11-18T22:12:28.376Z,90870.50
2022-11-18T22:15:00.904Z,90866.06
2022-11-18T22:17:33.270Z,90866.47
2022-11-18T22:20:07.671Z,90876.75
2022-11-18T22:22:40.078Z,90877.00
2022-11-18T22:25:12.470Z,90885.19
2022-11-18T22:27:44.884Z,90862.41
2022-11-18T22:30:17.284Z,90862.75
2022-11-18T22:32:49.677Z,90869.84
2022-11-18T22:35:22.649Z,90867.31
2022-11-18T22:37:54.968Z,90873.97
2022-11-18T22:40:27.326Z,90883.59
2022-11-18T22:42:59.356Z,90878.19
2022-11-18T22:45:31.649Z,90904.69
2022-11-18T22:48:04.161Z,90909.59
2022-11-18T22:50:37.323Z,90906.41
2022-11-18T22:53:09.694Z,90928.81
2022-11-18T22:55:42.013Z,90947.56
2022-11-18T22:58:14.365Z,90972.31
2022-11-18T23:00:47.184Z,90973.13
2022-11-18T23:03:19.543Z,90985.75
2022-11-18T23:05:58.925Z,90954.28
2022-11-18T23:08:34.203Z,90970.81
2022-11-18T23:11:09.055Z,90978.84
2022-11-18T23:13:56.214Z,90964.25
2022-11-18T23:16:32.167Z,90974.81
2022-11-18T23:19:06.673Z,90967.09
2022-11-18T23:21:40.246Z,90985.69
2022-11-18T23:24:13.731Z,90995.97
2022-11-18T23:26:46.558Z,90991.59
2022-11-18T23:29:19.791Z,91006.22
2022-11-18T23:31:53.141Z,91016.97
2022-11-18T23:34:25.474Z,91031.03
2022-11-18T23:36:58.455Z,91028.03
2022-11-18T23:39:30.821Z,91042.94
2022-11-18T23:42:04.433Z,91047.63
2022-11-18T23:44:45.528Z,91047.84
2022-11-18T23:47:17.862Z,91056.31
2022-11-18T23:49:50.153Z,91063.50
2022-11-18T23:52:23.196Z,91075.09
2022-11-18T23:54:56.911Z,91069.75
2022-11-18T23:57:29.287Z,91079.22
